createdAt,value
2022-08-04T00:00:09.232Z,21.98
2022-08-04T00:03:07.104Z,21.98
2022-08-04T00:05:53.366Z,21.89
2022-08-04T00:08:35.439Z,21.85
2022-08-04T00:11:15.631Z,21.82
2022-08-04T00:13:54.311Z,21.81
2022-08-04T00:16:44.274Z,21.76
2022-08-04T00:19:40.116Z,21.75
2022-08-04T00:22:17.112Z,21.76
2022-08-04T00:24:45.054Z,21.75
2022-08-04T00:27:26.112Z,21.72
2022-08-04T00:29:53.221Z,21.73
2022-08-04T00:32:34.565Z,21.74
2022-08-04T00:35:02.376Z,21.72
2022-08-04T00:37:36.101Z,21.66
2022-08-04T00:40:35.126Z,21.67
2022-08-04T00:43:24.600Z,21.64
2022-08-04T00:46:18.328Z,21.64
2022-08-04T00:49:43.115Z,21.61
2022-08-04T00:52:33.110Z,21.59
2022-08-04T00:55:30.128Z,21.56
2022-08-04T00:58:13.098Z,21.53
2022-08-04T01:01:06.762Z,21.51
2022-08-04T01:04:12.094Z,21.47
2022-08-04T01:06:56.282Z,21.41
2022-08-04T01:09:49.181Z,21.39
2022-08-04T01:12:49.966Z,21.34
2022-08-04T01:15:59.971Z,21.35
2022-08-04T01:18:35.322Z,21.50
2022-08-04T01:21:11.331Z,21.52
2022-08-04T01:23:56.084Z,21.43
2022-08-04T01:27:25.102Z,21.59
2022-08-04T01:29:57.244Z,21.63
2022-08-04T01:32:43.103Z,21.57
2022-08-04T01:35:50.079Z,21.44
2022-08-04T01:38:20.064Z,21.37
2022-08-04T01:41:09.131Z,21.40
2022-08-04T01:43:50.078Z,21.34
2022-08-04T01:46:17.718Z,21.15
2022-08-04T01:48:53.472Z,21.10
2022-08-04T01:51:31.112Z,21.06
2022-08-04T01:54:05.303Z,20.96
2022-08-04T01:56:39.092Z,20.94
2022-08-04T01:59:13.275Z,20.92
2022-08-04T02:01:40.095Z,20.87
2022-08-04T02:04:19.751Z,20.88
2022-08-04T02:07:06.081Z,20.83
2022-08-04T02:10:04.095Z,20.82
2022-08-04T02:12:52.446Z,20.81
2022-08-04T02:15:58.263Z,20.77
2022-08-04T02:18:31.170Z,20.75
2022-08-04T02:21:07.083Z,20.71
2022-08-04T02:23:41.008Z,20.66
2022-08-04T02:26:25.271Z,20.66
2022-08-04T02:29:10.496Z,20.65
2022-08-04T02:32:26.091Z,20.63
2022-08-04T02:35:16.262Z,20.65
2022-08-04T02:38:25.395Z,20.58
2022-08-04T02:41:02.138Z,20.53
2022-08-04T02:43:51.703Z,20.42
2022-08-04T02:46:28.081Z,20.43
2022-08-04T02:48:56.258Z,20.36
2022-08-04T02:51:40.161Z,20.34
2022-08-04T02:54:07.713Z,20.26
2022-08-04T02:56:43.090Z,20.29
2022-08-04T02:59:13.049Z,20.27
2022-08-04T03:01:57.910Z,20.24
2022-08-04T03:04:47.814Z,20.24
2022-08-04T03:08:05.087Z,20.23
2022-08-04T03:10:57.146Z,20.15
2022-08-04T03:14:01.481Z,20.18
2022-08-04T03:16:57.082Z,20.18
2022-08-04T03:19:38.972Z,20.13
2022-08-04T03:22:37.676Z,20.11
2022-08-04T03:25:37.089Z,20.11
2022-08-04T03:29:07.251Z,20.06
2022-08-04T03:31:46.095Z,20.05
2022-08-04T03:34:50.086Z,20.04
2022-08-04T03:37:39.206Z,20.05
2022-08-04T03:40:34.070Z,20.05
2022-08-04T03:43:57.850Z,19.98
2022-08-04T03:46:19.067Z,19.95
2022-08-04T03:49:07.089Z,19.93
2022-08-04T03:52:32.061Z,19.93
2022-08-04T03:55:20.090Z,19.90
2022-08-04T03:58:13.435Z,19.90
2022-08-04T04:00:59.113Z,19.91
2022-08-04T04:03:34.943Z,19.90
2022-08-04T04:06:24.229Z,19.91
2022-08-04T04:09:21.869Z,19.83
2022-08-04T04:11:59.073Z,19.79
2022-08-04T04:14:55.082Z,19.75
2022-08-04T04:17:42.820Z,19.81
2022-08-04T04:20:31.120Z,19.82
2022-08-04T04:22:57.778Z,19.88
2022-08-04T04:25:36.063Z,19.84
2022-08-04T04:29:24.208Z,19.88
2022-08-04T04:32:11.061Z,19.94
2022-08-04T04:35:06.241Z,19.97
2022-08-04T04:37:32.891Z,19.90
2022-08-04T04:40:05.922Z,19.94
2022-08-04T04:43:01.083Z,19.90
2022-08-04T04:46:00.078Z,20.01
2022-08-04T04:48:51.075Z,20.07
2022-08-04T04:51:40.052Z,20.16
2022-08-04T04:54:20.496Z,20.18
2022-08-04T04:57:16.070Z,20.16
2022-08-04T04:59:59.084Z,20.18
2022-08-04T05:02:35.069Z,20.21
2022-08-04T05:05:06.971Z,20.25
2022-08-04T05:08:45.337Z,20.28
2022-08-04T05:11:17.347Z,20.39
2022-08-04T05:14:38.057Z,20.43
2022-08-04T05:16:49.974Z,20.51
2022-08-04T05:20:00.071Z,20.57
2022-08-04T05:23:00.102Z,20.68
2022-08-04T05:25:39.805Z,20.75
2022-08-04T05:28:27.096Z,20.77
2022-08-04T05:31:09.201Z,20.76
2022-08-04T05:33:59.062Z,20.74
2022-08-04T05:36:41.909Z,20.78
2022-08-04T05:39:34.434Z,20.82
2022-08-04T05:42:05.052Z,20.87
2022-08-04T05:44:42.065Z,20.89
2022-08-04T05:47:12.301Z,20.78
2022-08-04T05:50:01.623Z,20.81
2022-08-04T05:52:31.791Z,20.85
2022-08-04T05:55:07.072Z,21.03
2022-08-04T05:57:34.382Z,21.10
2022-08-04T06:00:38.979Z,21.15
2022-08-04T06:02:59.918Z,21.24
2022-08-04T06:05:34.139Z,21.31
2022-08-04T06:08:12.348Z,21.33
2022-08-04T06:10:48.446Z,21.35
2022-08-04T06:13:49.687Z,21.39
2022-08-04T06:16:29.372Z,21.47
2022-08-04T06:20:03.462Z,21.46
2022-08-04T06:21:56.776Z,21.45
2022-08-04T06:24:33.062Z,21.56
2022-08-04T06:27:21.271Z,21.59
2022-08-04T06:29:51.717Z,21.61
2022-08-04T06:32:35.707Z,21.65
2022-08-04T06:35:06.633Z,21.70
2022-08-04T06:37:44.328Z,21.80
2022-08-04T06:40:30.535Z,21.83
2022-08-04T06:43:08.049Z,21.82
2022-08-04T06:45:39.224Z,21.97
2022-08-04T06:48:07.584Z,22.01
2022-08-04T06:51:26.163Z,22.07
2022-08-04T06:53:39.039Z,22.15
2022-08-04T06:56:15.026Z,22.18
2022-08-04T06:58:49.046Z,22.18
2022-08-04T07:01:25.085Z,22.27
2022-08-04T07:03:59.064Z,22.34
2022-08-04T07:06:26.511Z,22.37
2022-08-04T07:09:01.055Z,22.40
2022-08-04T07:11:28.624Z,22.51
2022-08-04T07:14:13.047Z,22.56
2022-08-04T07:16:41.819Z,22.60
2022-08-04T07:19:09.971Z,22.64
2022-08-04T07:22:18.138Z,22.66
2022-08-04T07:24:41.161Z,22.66
2022-08-04T07:27:16.031Z,22.75
2022-08-04T07:29:50.267Z,22.83
2022-08-04T07:32:27.040Z,22.85
2022-08-04T07:34:55.495Z,22.90
2022-08-04T07:37:23.308Z,22.90
2022-08-04T07:40:13.051Z,22.94
2022-08-04T07:42:40.341Z,23.01
2022-08-04T07:45:15.063Z,23.14
2022-08-04T07:48:05.209Z,23.14
2022-08-04T07:50:41.105Z,23.22
2022-08-04T07:53:54.879Z,23.24
2022-08-04T07:56:03.052Z,23.37
2022-08-04T07:58:36.171Z,23.40
2022-08-04T08:01:10.044Z,23.47
2022-08-04T08:03:45.124Z,23.52
2022-08-04T08:06:18.065Z,23.58
2022-08-04T08:09:13.477Z,23.70
2022-08-04T08:12:37.697Z,23.77
2022-08-04T08:14:46.401Z,23.80
2022-08-04T08:17:20.184Z,23.89
2022-08-04T08:19:47.012Z,23.98
2022-08-04T08:22:20.034Z,24.00
2022-08-04T08:24:53.022Z,24.09
2022-08-04T08:27:28.218Z,24.17
2022-08-04T08:30:08.050Z,24.23
2022-08-04T08:32:38.922Z,24.28
2022-08-04T08:35:13.056Z,24.34
2022-08-04T08:37:56.443Z,24.37
2022-08-04T08:40:40.503Z,24.43
2022-08-04T08:44:05.182Z,24.52
2022-08-04T08:46:49.292Z,24.58
2022-08-04T08:50:00.250Z,24.66
2022-08-04T08:52:56.424Z,24.68
2022-08-04T08:55:41.258Z,24.79
2022-08-04T08:58:27.026Z,24.86
2022-08-04T09:01:11.156Z,24.91
2022-08-04T09:03:59.586Z,25.03
2022-08-04T09:07:06.031Z,25.12
2022-08-04T09:09:48.857Z,25.18
2022-08-04T09:12:52.029Z,25.28
2022-08-04T09:15:36.048Z,25.35
2022-08-04T09:18:13.477Z,25.40
2022-08-04T09:20:58.053Z,25.50
2022-08-04T09:23:58.946Z,25.56
2022-08-04T09:27:00.144Z,25.60
2022-08-04T09:29:49.098Z,25.76
2022-08-04T09:32:32.946Z,25.82
2022-08-04T09:35:32.032Z,25.92
2022-08-04T09:38:18.034Z,26.00
2022-08-04T09:41:20.843Z,26.09
2022-08-04T09:44:52.161Z,26.22
2022-08-04T09:47:46.028Z,26.31
2022-08-04T09:50:24.930Z,26.51
2022-08-04T09:53:39.085Z,26.67
2022-08-04T09:56:14.836Z,26.73
2022-08-04T09:59:32.031Z,26.81
2022-08-04T10:02:10.094Z,26.91
2022-08-04T10:04:40.437Z,27.00
2022-08-04T10:07:14.109Z,27.09
2022-08-04T10:09:54.267Z,27.18
2022-08-04T10:12:30.027Z,27.29
2022-08-04T10:15:34.052Z,27.48
2022-08-04T10:18:25.642Z,27.63
2022-08-04T10:21:26.070Z,27.71
2022-08-04T10:24:15.391Z,27.79
2022-08-04T10:27:10.024Z,28.04
2022-08-04T10:29:52.013Z,28.12
2022-08-04T10:32:25.843Z,28.32
2022-08-04T10:35:16.040Z,28.40
2022-08-04T10:38:10.029Z,28.53
2022-08-04T10:40:48.345Z,28.65
2022-08-04T10:43:25.007Z,28.75
2022-08-04T10:46:33.036Z,28.83
2022-08-04T10:49:05.090Z,28.89
2022-08-04T10:52:00.069Z,28.93
2022-08-04T10:54:37.455Z,29.05
2022-08-04T10:57:22.287Z,29.06
2022-08-04T11:00:23.018Z,29.15
2022-08-04T11:03:09.218Z,29.34
2022-08-04T11:05:56.043Z,29.45
2022-08-04T11:08:27.806Z,29.43
2022-08-04T11:11:22.018Z,29.64
2022-08-04T11:14:11.080Z,29.77
2022-08-04T11:16:55.991Z,29.88
2022-08-04T11:20:33.577Z,30.08
2022-08-04T11:23:17.547Z,30.16
2022-08-04T11:26:06.038Z,30.30
2022-08-04T11:29:03.980Z,30.50
2022-08-04T11:31:51.641Z,30.30
2022-08-04T11:34:34.014Z,30.49
2022-08-04T11:37:17.959Z,30.83
2022-08-04T11:40:07.031Z,30.92
2022-08-04T11:42:40.598Z,31.11
2022-08-04T11:45:31.022Z,31.29
2022-08-04T11:48:01.496Z,31.46
2022-08-04T11:50:51.729Z,31.22
2022-08-04T11:53:26.058Z,31.30
2022-08-04T11:56:11.471Z,31.55
2022-08-04T11:58:40.206Z,31.74
2022-08-04T12:02:02.138Z,31.71
2022-08-04T12:04:49.883Z,31.59
2022-08-04T12:07:48.200Z,31.56
2022-08-04T12:10:42.303Z,31.71
2022-08-04T12:13:37.998Z,31.54
2022-08-04T12:16:17.172Z,31.46
2022-08-04T12:19:08.022Z,31.57
2022-08-04T12:21:56.868Z,31.73
2022-08-04T12:24:38.053Z,31.67
2022-08-04T12:27:46.040Z,31.69
2022-08-04T12:30:58.527Z,31.71
2022-08-04T12:33:17.707Z,31.78
2022-08-04T12:36:10.188Z,31.80
2022-08-04T12:38:54.197Z,31.87
2022-08-04T12:41:38.025Z,31.97
2022-08-04T12:44:32.598Z,32.04
2022-08-04T12:47:28.222Z,32.15
2022-08-04T12:49:59.076Z,32.21
2022-08-04T12:53:00.461Z,32.35
2022-08-04T12:55:28.928Z,32.63
2022-08-04T12:58:05.353Z,32.75
2022-08-04T13:00:43.250Z,32.87
2022-08-04T13:03:14.348Z,32.94
2022-08-04T13:05:50.023Z,33.02
2022-08-04T13:08:27.109Z,33.11
2022-08-04T13:10:59.964Z,33.32
2022-08-04T13:13:36.002Z,33.36
2022-08-04T13:16:16.032Z,33.37
2022-08-04T13:18:49.090Z,33.44
2022-08-04T13:21:50.299Z,33.57
2022-08-04T13:24:32.637Z,33.60
2022-08-04T13:27:17.056Z,33.60
2022-08-04T13:30:09.031Z,33.67
2022-08-04T13:32:36.510Z,33.67
2022-08-04T13:35:12.032Z,33.73
2022-08-04T13:37:39.597Z,33.74
2022-08-04T13:40:18.212Z,33.67
2022-08-04T13:42:55.046Z,33.69
2022-08-04T13:45:35.058Z,33.65
2022-08-04T13:48:15.187Z,33.73
2022-08-04T13:50:57.016Z,33.75
2022-08-04T13:53:27.841Z,33.80
2022-08-04T13:56:06.014Z,33.81
2022-08-04T13:58:42.038Z,33.96
2022-08-04T14:01:35.897Z,33.98
2022-08-04T14:04:12.042Z,33.94
2022-08-04T14:06:50.901Z,33.95
2022-08-04T14:09:35.188Z,33.95
2022-08-04T14:12:38.150Z,34.19
2022-08-04T14:15:04.347Z,34.44
2022-08-04T14:17:58.032Z,34.30
2022-08-04T14:20:24.814Z,34.40
2022-08-04T14:23:08.027Z,34.33
2022-08-04T14:25:41.034Z,34.12
2022-08-04T14:28:14.020Z,34.01
2022-08-04T14:30:47.558Z,33.90
2022-08-04T14:34:02.630Z,33.91
2022-08-04T14:36:16.034Z,33.64
2022-08-04T14:39:03.101Z,33.54
2022-08-04T14:41:43.837Z,33.54
2022-08-04T14:44:17.013Z,33.44
2022-08-04T14:46:55.993Z,33.24
2022-08-04T14:49:33.011Z,33.11
2022-08-04T14:52:03.012Z,32.89
2022-08-04T14:54:42.055Z,32.73
2022-08-04T14:57:16.080Z,32.54
2022-08-04T15:00:00.499Z,32.51
2022-08-04T15:02:30.266Z,32.41
2022-08-04T15:06:03.982Z,32.34
2022-08-04T15:07:52.579Z,32.29
2022-08-04T15:10:27.031Z,32.22
2022-08-04T15:13:02.032Z,32.20
2022-08-04T15:15:36.866Z,32.18
2022-08-04T15:18:14.088Z,32.10
2022-08-04T15:20:42.392Z,32.02
2022-08-04T15:23:16.027Z,32.03
2022-08-04T15:25:47.378Z,32.02
2022-08-04T15:28:25.026Z,31.85
2022-08-04T15:31:01.213Z,31.79
2022-08-04T15:33:36.019Z,31.75
2022-08-04T15:36:26.346Z,31.82
2022-08-04T15:39:26.136Z,31.78
2022-08-04T15:42:25.136Z,31.84
2022-08-04T15:46:41.244Z,31.95
2022-08-04T15:48:20.124Z,31.90
2022-08-04T15:51:18.012Z,31.79
2022-08-04T15:54:08.807Z,31.71
2022-08-04T15:57:02.318Z,31.70
2022-08-04T16:00:02.062Z,31.58
2022-08-04T16:02:38.137Z,31.52
2022-08-04T16:05:21.025Z,31.49
2022-08-04T16:08:07.008Z,31.53
2022-08-04T16:10:41.112Z,31.46
2022-08-04T16:13:21.016Z,31.48
2022-08-04T16:16:03.250Z,31.48
2022-08-04T16:18:39.020Z,31.41
2022-08-04T16:21:17.802Z,31.37
2022-08-04T16:24:02.338Z,31.46
2022-08-04T16:26:46.117Z,31.49
2022-08-04T16:29:47.258Z,31.51
2022-08-04T16:32:30.101Z,31.60
2022-08-04T16:35:01.392Z,31.55
2022-08-04T16:37:47.036Z,31.53
2022-08-04T16:40:40.027Z,31.51
2022-08-04T16:43:16.022Z,31.51
2022-08-04T16:45:48.353Z,31.54
2022-08-04T16:48:32.005Z,31.51
2022-08-04T16:51:10.339Z,31.56
2022-08-04T16:54:02.825Z,31.58
2022-08-04T16:56:34.198Z,31.55
2022-08-04T16:59:20.015Z,31.55
2022-08-04T17:01:52.005Z,31.57
2022-08-04T17:04:35.007Z,31.59
2022-08-04T17:07:05.576Z,31.72
2022-08-04T17:09:40.043Z,31.79
2022-08-04T17:12:07.107Z,31.79
2022-08-04T17:14:55.021Z,31.83
2022-08-04T17:18:04.049Z,31.88
2022-08-04T17:20:27.162Z,31.95
2022-08-04T17:24:14.884Z,31.81
2022-08-04T17:26:40.407Z,31.69
2022-08-04T17:29:19.867Z,31.59
2022-08-04T17:32:00.073Z,31.46
2022-08-04T17:34:33.026Z,31.32
2022-08-04T17:37:36.557Z,31.14
2022-08-04T17:39:58.043Z,30.88
2022-08-04T17:42:33.287Z,30.69
2022-08-04T17:45:50.830Z,30.51
2022-08-04T17:48:24.749Z,30.32
2022-08-04T17:50:59.016Z,30.16
2022-08-04T17:54:01.618Z,30.04
2022-08-04T17:56:51.509Z,29.87
2022-08-04T17:59:52.006Z,29.71
2022-08-04T18:02:31.782Z,29.56
2022-08-04T18:05:06.956Z,29.44
2022-08-04T18:08:45.489Z,29.34
2022-08-04T18:10:54.632Z,29.19
2022-08-04T18:13:42.892Z,29.09
2022-08-04T18:16:22.766Z,28.95
2022-08-04T18:19:26.009Z,28.81
2022-08-04T18:22:00.317Z,28.71
2022-08-04T18:24:55.882Z,28.63
2022-08-04T18:27:26.226Z,28.54
2022-08-04T18:30:31.164Z,28.47
2022-08-04T18:33:40.419Z,28.37
2022-08-04T18:36:34.198Z,28.27
2022-08-04T18:38:54.551Z,28.19
2022-08-04T18:42:01.225Z,28.10
2022-08-04T18:44:28.117Z,28.00
2022-08-04T18:47:19.259Z,27.93
2022-08-04T18:50:59.219Z,27.82
2022-08-04T18:52:42.092Z,27.75
2022-08-04T18:55:34.051Z,27.67
2022-08-04T18:58:26.752Z,27.59
2022-08-04T19:01:02.044Z,27.52
2022-08-04T19:03:30.765Z,27.44
2022-08-04T19:06:09.027Z,27.38
2022-08-04T19:08:45.008Z,27.31
2022-08-04T19:11:37.865Z,27.25
2022-08-04T19:14:14.126Z,27.15
2022-08-04T19:16:45.941Z,27.10
2022-08-04T19:19:40.274Z,27.04
2022-08-04T19:22:35.975Z,26.97
2022-08-04T19:25:03.010Z,26.89
2022-08-04T19:27:39.879Z,26.85
2022-08-04T19:30:14.805Z,26.79
2022-08-04T19:32:51.022Z,26.72
2022-08-04T19:35:17.767Z,26.67
2022-08-04T19:37:57.492Z,26.64
2022-08-04T19:40:35.008Z,26.60
2022-08-04T19:43:14.398Z,26.56
2022-08-04T19:45:49.011Z,26.50
2022-08-04T19:48:28.710Z,26.47
2022-08-04T19:51:04.008Z,26.41
2022-08-04T19:53:37.487Z,26.38
2022-08-04T19:56:15.991Z,26.32
2022-08-04T20:01:44.529Z,26.25
2022-08-04T20:04:19.016Z,26.23
2022-08-04T20:06:45.721Z,26.20
2022-08-04T20:09:26.002Z,26.15
2022-08-04T20:12:04.035Z,26.12
2022-08-04T20:14:33.328Z,26.08
2022-08-04T20:17:11.035Z,26.05
2022-08-04T20:19:38.925Z,26.01
2022-08-04T20:22:52.636Z,25.97
2022-08-04T20:25:18.254Z,25.92
2022-08-04T20:28:00.621Z,25.85
2022-08-04T20:30:43.181Z,25.83
2022-08-04T20:33:10.125Z,25.79
2022-08-04T20:36:05.137Z,25.77
2022-08-04T20:38:34.209Z,25.75
2022-08-04T20:41:08.011Z,25.73
2022-08-04T20:43:34.818Z,25.74
2022-08-04T20:46:18.572Z,25.69
2022-08-04T20:48:55.765Z,25.69
2022-08-04T20:51:31.911Z,25.66
2022-08-04T20:54:01.965Z,25.64
2022-08-04T20:56:36.030Z,25.58
2022-08-04T20:59:10.070Z,25.54
2022-08-04T21:01:45.262Z,25.55
2022-08-04T21:04:46.390Z,25.49
2022-08-04T21:07:22.320Z,25.46
2022-08-04T21:09:50.010Z,25.40
2022-08-04T21:12:28.225Z,25.38
2022-08-04T21:15:13.502Z,25.33
2022-08-04T21:17:59.137Z,25.29
2022-08-04T21:20:32.137Z,25.24
2022-08-04T21:23:07.402Z,25.18
2022-08-04T21:25:42.951Z,25.15
2022-08-04T21:28:20.112Z,25.12
2022-08-04T21:30:55.863Z,25.06
2022-08-04T21:33:50.674Z,25.00
2022-08-04T21:36:19.773Z,24.96
2022-08-04T21:39:01.021Z,24.92
2022-08-04T21:41:30.847Z,24.90
2022-08-04T21:44:04.001Z,24.88
2022-08-04T21:46:31.364Z,24.87
2022-08-04T21:49:09.309Z,24.82
2022-08-04T21:51:58.730Z,24.74
2022-08-04T21:54:35.076Z,24.70
2022-08-04T21:57:10.994Z,24.62
2022-08-04T21:59:45.080Z,24.63
2022-08-04T22:02:19.076Z,24.61
2022-08-04T22:04:45.923Z,24.59
2022-08-04T22:07:18.979Z,24.55
2022-08-04T22:12:51.905Z,24.51
2022-08-04T22:15:23.161Z,24.48
2022-08-04T22:18:12.035Z,24.43
2022-08-04T22:20:39.093Z,24.43
2022-08-04T22:23:16.818Z,24.42
2022-08-04T22:25:55.403Z,24.35
2022-08-04T22:28:29.989Z,24.33
2022-08-04T22:31:23.347Z,24.29
2022-08-04T22:33:58.985Z,24.28
2022-08-04T22:36:33.119Z,24.23
2022-08-04T22:39:07.241Z,24.17
2022-08-04T22:41:48.565Z,24.14
2022-08-04T22:44:33.976Z,24.11
2022-08-04T22:47:04.993Z,24.06
2022-08-04T22:49:32.616Z,24.06
2022-08-04T22:52:12.653Z,24.02
2022-08-04T22:54:52.664Z,24.00
2022-08-04T22:57:43.517Z,23.97
2022-08-04T23:00:20.062Z,23.95
2022-08-04T23:03:01.991Z,23.91
2022-08-04T23:05:36.020Z,23.92
2022-08-04T23:08:05.185Z,23.97
2022-08-04T23:10:38.981Z,23.96
2022-08-04T23:13:08.251Z,23.86
2022-08-04T23:15:42.988Z,23.79
2022-08-04T23:18:09.795Z,23.77
2022-08-04T23:20:43.995Z,23.79
2022-08-04T23:23:14.910Z,23.79
2022-08-04T23:26:07.671Z,23.75
2022-08-04T23:28:42.085Z,23.69
2022-08-04T23:31:21.970Z,23.77
2022-08-04T23:33:54.968Z,23.74
2022-08-04T23:36:31.089Z,23.75
2022-08-04T23:39:04.031Z,23.80
2022-08-04T23:41:54.393Z,23.63
2022-08-04T23:44:30.958Z,23.54
2022-08-04T23:47:05.995Z,23.52
2022-08-04T23:49:43.406Z,23.51
2022-08-04T23:52:23.501Z,23.48
2022-08-04T23:55:02.972Z,23.44
2022-08-04T23:58:05.325Z,23.38
